createdAt,value
2024-04-25T00:01:10.816Z,80.17495
2024-04-25T00:06:12.388Z,72.59005
2024-04-25T00:11:14.006Z,66.9606
2024-04-25T00:16:15.649Z,68.205
2024-04-25T00:21:17.158Z,65.1236
2024-04-25T00:26:18.834Z,67.13835
2024-04-25T00:31:20.250Z,66.5458
2024-04-25T00:36:21.668Z,71.4641
2024-04-25T00:41:23.040Z,77.27125
2024-04-25T00:46:24.383Z,78.8712
2024-04-25T00:51:25.825Z,83.13765
2024-04-25T00:56:27.221Z,88.8856
2024-04-25T01:01:28.821Z,90.367
2024-04-25T01:06:30.403Z,93.09285
2024-04-25T01:11:31.891Z,90.367
2024-04-25T01:16:33.346Z,84.67835
2024-04-25T01:21:34.819Z,75.4935
2024-04-25T01:26:36.340Z,67.61235
2024-04-25T01:31:37.884Z,59.13855
2024-04-25T01:36:39.315Z,59.67185
2024-04-25T01:41:40.750Z,65.36055
2024-04-25T01:46:42.167Z,64.8864
2024-04-25T01:51:43.599Z,68.44185
2024-04-25T01:56:45.189Z,68.67885
2024-04-25T02:01:46.637Z,62.9902
2024-04-25T02:06:48.244Z,53.98315
2024-04-25T02:11:49.753Z,44.85765
2024-04-25T02:16:51.194Z,39.406
2024-04-25T02:21:52.677Z,35.3765
2024-04-25T02:26:54.077Z,29.3323
2024-04-25T02:31:55.499Z,22.6955
2024-04-25T02:36:56.936Z,15.99945
2024-04-25T02:41:58.408Z,12.246
2024-04-25T02:46:59.734Z,9.97745
2024-04-25T02:52:01.267Z,6.123
2024-04-25T02:57:02.686Z,3.4304
2024-04-25T03:02:04.104Z,2.01475
2024-04-25T03:07:05.607Z,0.88885
2024-04-25T03:12:07.310Z,2.3237
2024-04-25T03:17:08.766Z,1.16185
2024-04-25T03:22:10.197Z,0
2024-04-25T03:27:11.647Z,0
2024-04-25T03:32:13.222Z,0
2024-04-25T03:37:16.025Z,0
2024-04-25T03:42:17.499Z,0
2024-04-25T03:47:19.000Z,0
2024-04-25T03:52:20.504Z,0
2024-04-25T03:57:21.942Z,0
2024-04-25T04:02:23.488Z,0
2024-04-25T04:07:25.337Z,0
2024-04-25T04:12:26.918Z,0
2024-04-25T04:17:28.432Z,0
2024-04-25T04:22:29.879Z,0
2024-04-25T04:27:31.278Z,0
2024-04-25T04:32:32.832Z,0
2024-04-25T04:37:34.534Z,0
2024-04-25T04:42:35.925Z,0
2024-04-25T04:47:37.459Z,0
2024-04-25T04:52:39.103Z,0
2024-04-25T04:57:40.540Z,0
2024-04-25T05:02:42.255Z,0
2024-04-25T05:07:43.922Z,0
2024-04-25T05:12:45.303Z,0
2024-04-25T05:17:46.717Z,0
2024-04-25T05:22:48.247Z,0
2024-04-25T05:27:49.723Z,0
2024-04-25T05:32:51.346Z,0
2024-04-25T05:37:52.980Z,0
2024-04-25T05:42:54.479Z,0
2024-04-25T05:47:56.204Z,0
2024-04-25T05:52:57.881Z,0
2024-04-25T05:57:59.375Z,0
2024-04-25T06:03:04.251Z,0
2024-04-25T06:08:06.484Z,0
2024-04-25T06:13:08.123Z,0
2024-04-25T06:18:09.659Z,0
2024-04-25T06:23:11.179Z,0
2024-04-25T06:28:12.604Z,0
2024-04-25T06:33:14.153Z,0
2024-04-25T06:38:16.040Z,0
2024-04-25T06:43:17.641Z,0
2024-04-25T06:48:19.316Z,0
2024-04-25T06:53:21.076Z,0
2024-04-25T06:58:22.492Z,0
2024-04-25T07:03:23.960Z,0
2024-04-25T07:08:25.587Z,0
2024-04-25T07:13:27.072Z,0
2024-04-25T07:18:28.620Z,0
2024-04-25T07:23:30.243Z,0
2024-04-25T07:28:31.796Z,0
2024-04-25T07:33:33.552Z,0
2024-04-25T07:38:35.415Z,0
2024-04-25T07:43:36.938Z,0
2024-04-25T07:48:38.402Z,0
2024-04-25T07:53:40.658Z,0
2024-04-25T07:58:42.129Z,0
2024-04-25T08:03:43.558Z,0
2024-04-25T08:08:45.195Z,0
2024-04-25T08:13:46.728Z,0
2024-04-25T08:18:48.117Z,0
2024-04-25T08:23:49.569Z,0
2024-04-25T08:28:50.979Z,0
2024-04-25T08:33:52.564Z,0
2024-04-25T08:38:54.101Z,0
2024-04-25T08:43:55.591Z,0
2024-04-25T08:48:57.082Z,0
2024-04-25T08:53:58.434Z,0
2024-04-25T08:58:59.916Z,0
2024-04-25T09:04:01.396Z,0
2024-04-25T09:09:02.873Z,0
2024-04-25T09:14:04.452Z,0
2024-04-25T09:19:05.829Z,0
2024-04-25T09:24:07.211Z,0
2024-04-25T09:29:08.647Z,0
2024-04-25T09:34:10.293Z,0
2024-04-25T09:39:11.774Z,0
2024-04-25T09:44:13.416Z,0
2024-04-25T09:49:14.922Z,0
2024-04-25T09:54:16.336Z,0
2024-04-25T09:59:17.827Z,0
2024-04-25T10:04:19.400Z,0
2024-04-25T10:09:20.896Z,0
2024-04-25T10:14:22.396Z,0
2024-04-25T10:19:23.791Z,0
2024-04-25T10:24:25.438Z,0
2024-04-25T10:29:27.053Z,0
2024-04-25T10:34:28.664Z,0
2024-04-25T10:39:30.125Z,0
2024-04-25T10:44:31.616Z,0
2024-04-25T10:49:33.072Z,0
2024-04-25T10:54:34.552Z,0
2024-04-25T10:59:36.083Z,0
2024-04-25T11:04:37.664Z,0
2024-04-25T11:09:39.064Z,0
2024-04-25T11:14:40.605Z,0
2024-04-25T11:19:48.949Z,0
2024-04-25T11:24:51.573Z,0
2024-04-25T11:29:53.085Z,0
2024-04-25T11:34:54.500Z,0
2024-04-25T11:39:55.973Z,0
2024-04-25T11:44:57.409Z,0
2024-04-25T11:49:58.967Z,0
2024-04-25T11:55:00.315Z,0
2024-04-25T12:00:01.792Z,0
2024-04-25T12:05:03.269Z,0
2024-04-25T12:10:04.684Z,0
2024-04-25T12:15:06.112Z,0
2024-04-25T12:20:07.485Z,0
2024-04-25T12:25:09.084Z,0.4148
2024-04-25T12:30:10.694Z,1.3463
2024-04-25T12:35:12.172Z,1.53075
2024-04-25T12:40:13.903Z,1.83695
2024-04-25T12:45:16.598Z,3.6739
2024-04-25T12:50:20.241Z,6.81455
2024-04-25T12:55:23.345Z,10.25145
2024-04-25T13:00:24.883Z,14.3402
2024-04-25T13:05:26.253Z,17.7771
2024-04-25T13:10:27.848Z,20.2659
2024-04-25T13:15:30.146Z,22.0436
2024-04-25T13:20:31.831Z,25.89535
2024-04-25T13:25:33.197Z,32.2951
2024-04-25T13:30:34.554Z,42.191
2024-04-25T13:35:36.038Z,52.9758
2024-04-25T13:40:37.460Z,66.24945
2024-04-25T13:45:38.934Z,76.4418
2024-04-25T13:50:40.513Z,101.15225
2024-04-25T13:55:41.903Z,1022.91595
2024-04-25T14:00:43.371Z,325.2378
2024-04-25T14:05:44.785Z,189.98215
2024-04-25T14:10:46.224Z,173.76955
2024-04-25T14:15:47.620Z,149.88605
2024-04-25T14:20:49.364Z,138.7829
2024-04-25T14:25:50.908Z,132.6789
2024-04-25T14:30:52.669Z,135.0216
2024-04-25T14:35:54.096Z,142.6324
2024-04-25T14:40:55.604Z,141.92135
2024-04-25T14:45:57.291Z,129.06245
2024-04-25T14:50:58.687Z,132.14365
2024-04-25T14:56:00.076Z,140.79505
2024-04-25T15:01:01.541Z,151.75755
2024-04-25T15:06:03.100Z,149.03175
2024-04-25T15:11:04.572Z,155.37225
2024-04-25T15:16:05.969Z,192.34855
2024-04-25T15:21:07.355Z,220.08095
2024-04-25T15:26:08.875Z,268.19785
2024-04-25T15:31:10.287Z,377.2309
2024-04-25T15:36:11.748Z,447.21395
2024-04-25T15:41:13.173Z,471.6878
2024-04-25T15:46:14.577Z,402.5941
2024-04-25T15:51:15.954Z,525.2554
2024-04-25T15:56:17.435Z,416.75575
2024-04-25T16:01:18.946Z,576.1566
2024-04-25T16:06:20.403Z,405.67465
2024-04-25T16:11:21.861Z,519.68515
2024-04-25T16:16:24.495Z,603.47455
2024-04-25T16:21:26.123Z,574.61665
2024-04-25T16:26:27.879Z,660.12425
2024-04-25T16:31:29.301Z,592.45285
2024-04-25T16:36:30.751Z,622.1996
2024-04-25T16:41:32.199Z,628.83635
2024-04-25T16:46:33.569Z,552.03945
2024-04-25T16:51:34.970Z,651.4131
2024-04-25T16:56:36.610Z,724.89145
2024-04-25T17:01:38.372Z,378.95025
2024-04-25T17:06:39.774Z,355.78075
2024-04-25T17:11:41.298Z,341.38125
2024-04-25T17:16:42.827Z,310.74545
2024-04-25T17:21:44.375Z,293.26475
2024-04-25T17:26:46.190Z,285.05595
2024-04-25T17:31:48.848Z,295.7902
2024-04-25T17:36:50.586Z,461.61345
2024-04-25T17:41:52.051Z,715.35095
2024-04-25T17:46:53.461Z,723.588
2024-04-25T17:51:54.817Z,704.62575
2024-04-25T17:56:56.250Z,446.68095
2024-04-25T18:01:57.644Z,376.2243
2024-04-25T18:06:59.246Z,346.23995
2024-04-25T18:12:00.846Z,324.61095
2024-04-25T18:17:02.328Z,271.6942
2024-04-25T18:22:04.080Z,265.0575
2024-04-25T18:27:05.561Z,245.85815
2024-04-25T18:32:06.981Z,276.2569
2024-04-25T18:37:08.449Z,255.5169
2024-04-25T18:42:10.235Z,252.1985
2024-04-25T18:47:11.832Z,261.324
2024-04-25T18:52:13.396Z,267.72385
2024-04-25T18:57:14.918Z,262.9833
2024-04-25T19:02:16.346Z,267.60545
2024-04-25T19:07:17.726Z,270.33135
2024-04-25T19:12:19.287Z,278.98275
2024-04-25T19:17:20.834Z,293.50055
2024-04-25T19:22:22.296Z,276.7901
2024-04-25T19:27:23.701Z,240.2878
2024-04-25T19:32:25.130Z,232.7622
2024-04-25T19:37:26.556Z,246.6876
2024-04-25T19:42:27.954Z,266.7757
2024-04-25T19:47:32.580Z,268.7312
2024-04-25T19:52:36.605Z,273.88655
2024-04-25T19:57:38.061Z,257.29465
2024-04-25T20:02:39.594Z,253.917
2024-04-25T20:07:41.069Z,214.6888
2024-04-25T20:12:42.474Z,198.27455
2024-04-25T20:17:44.105Z,185.5342
2024-04-25T20:22:45.674Z,177.94925
2024-04-25T20:27:47.321Z,174.57145
2024-04-25T20:32:48.795Z,160.3498
2024-04-25T20:37:50.291Z,155.8463
2024-04-25T20:42:51.898Z,154.83895
2024-04-25T20:47:53.367Z,161.12025
2024-04-25T20:52:55.094Z,182.63055
2024-04-25T20:57:56.502Z,214.51075
2024-04-25T21:02:57.833Z,213.1478
2024-04-25T21:07:59.443Z,191.69685
2024-04-25T21:13:00.977Z,183.28235
2024-04-25T21:18:02.486Z,205.32595
2024-04-25T21:23:04.057Z,207.6962
2024-04-25T21:28:08.017Z,216.4662
2024-04-25T21:33:10.959Z,246.9835
2024-04-25T21:38:12.487Z,315.60295
2024-04-25T21:43:13.955Z,309.67735
2024-04-25T21:48:15.560Z,331.12835
2024-04-25T21:53:17.038Z,542.3792
2024-04-25T21:58:18.508Z,428.0133
2024-04-25T22:03:20.209Z,399.80725
2024-04-25T22:08:21.776Z,332.55065
2024-04-25T22:13:23.168Z,298.41875
2024-04-25T22:18:24.764Z,241.532
2024-04-25T22:23:26.282Z,252.19815
2024-04-25T22:28:27.820Z,212.6736
2024-04-25T22:33:29.343Z,177.88985
2024-04-25T22:38:30.997Z,160.82385
2024-04-25T22:43:32.660Z,128.5882
2024-04-25T22:48:34.201Z,111.4036
2024-04-25T22:53:35.715Z,97.71515
2024-04-25T22:58:37.096Z,79.28615
2024-04-25T23:03:38.504Z,75.0788
2024-04-25T23:08:39.940Z,58.2498
2024-04-25T23:13:41.401Z,56.64985
2024-04-25T23:18:42.970Z,50.2501
2024-04-25T23:23:44.769Z,42.7245
2024-04-25T23:28:46.140Z,41.00605
2024-04-25T23:33:47.663Z,38.93205
2024-04-25T23:38:49.297Z,39.2283
2024-04-25T23:43:50.813Z,42.72445
2024-04-25T23:48:52.204Z,48.35385
2024-04-25T23:53:53.750Z,53.03515
2024-04-25T23:58:55.276Z,48.3539
